Time;durP1;ratioP1;P1;durP2;ratioP2;P2;SDS_P1;SDS_P2;PMS_P1;PMS_P2;Temp;Humidity;BMP_temperature;BMP_pressure;BME280_temperature;BME280_humidity;BME280_pressure;Samples;Min_cycle;Max_cycle;Signal;HPM_P1;HPM_P2
2023/06/04 00:00:48;;;;;;;4.70;1.90;;;;;;;;;;4981951;28;20222;-70
2023/06/04 00:03:53;;;;;;;4.97;2.20;;;;;;;;;;4993817;28;20205;-70
2023/06/04 00:06:56;;;;;;;5.00;2.47;;;;;;;;;;4993423;28;20179;-70
2023/06/04 00:10:00;;;;;;;3.83;2.30;;;;;;;;;;4981568;28;20186;-70
2023/06/04 00:13:05;;;;;;;3.13;2.10;;;;;;;;;;4993531;28;20522;-70
2023/06/04 00:16:09;;;;;;;2.63;2.10;;;;;;;;;;4981815;28;20186;-70
2023/06/04 00:19:14;;;;;;;2.60;2.20;;;;;;;;;;4993775;28;20179;-70
2023/06/04 00:22:18;;;;;;;2.53;2.00;;;;;;;;;;4993940;28;20214;-72
2023/06/04 00:25:22;;;;;;;5.23;2.20;;;;;;;;;;4996712;28;20629;-71
2023/06/04 00:28:26;;;;;;;4.93;2.00;;;;;;;;;;4997717;28;20178;-70
2023/06/04 00:31:31;;;;;;;4.83;2.33;;;;;;;;;;4985259;28;20218;-71
2023/06/04 00:34:35;;;;;;;3.80;2.33;;;;;;;;;;4985530;28;20193;-70
2023/06/04 00:37:39;;;;;;;4.17;2.53;;;;;;;;;;4974202;28;20625;-70
2023/06/04 00:40:43;;;;;;;2.87;2.23;;;;;;;;;;4984885;28;20225;-70
2023/06/04 00:43:55;;;;;;;5.37;2.30;;;;;;;;;;4996744;28;20221;-71
2023/06/04 00:47:00;;;;;;;3.43;2.50;;;;;;;;;;4973345;28;20535;-70
2023/06/04 00:50:06;;;;;;;2.83;2.13;;;;;;;;;;4984641;28;20187;-71
2023/06/04 00:53:11;;;;;;;4.17;2.40;;;;;;;;;;4996740;28;20182;-70
2023/06/04 00:56:15;;;;;;;4.20;2.50;;;;;;;;;;4996736;28;20178;-70
2023/06/04 00:59:19;;;;;;;5.37;2.37;;;;;;;;;;4984483;28;20190;-72
2023/06/04 01:02:25;;;;;;;3.77;2.70;;;;;;;;;;4984702;28;20213;-72
2023/06/04 01:05:38;;;;;;;3.97;2.43;;;;;;;;;;4984765;28;20522;-72
2023/06/04 01:08:43;;;;;;;3.63;2.20;;;;;;;;;;4984254;28;20210;-70
2023/06/04 01:11:47;;;;;;;4.60;2.77;;;;;;;;;;4984207;28;20222;-70
2023/06/04 01:14:51;;;;;;;3.10;2.27;;;;;;;;;;4984625;28;20194;-72
2023/06/04 01:18:03;;;;;;;4.73;2.60;;;;;;;;;;4984230;28;20198;-72
2023/06/04 01:21:12;;;;;;;4.60;2.60;;;;;;;;;;4984336;28;20222;-69
2023/06/04 01:24:22;;;;;;;3.73;2.40;;;;;;;;;;4996476;28;20215;-70
2023/06/04 01:27:26;;;;;;;4.27;2.93;;;;;;;;;;4984129;28;20519;-72
2023/06/04 01:30:33;;;;;;;3.70;2.43;;;;;;;;;;4984419;28;20183;-70
2023/06/04 01:33:37;;;;;;;2.73;2.20;;;;;;;;;;4984442;28;20503;-69
2023/06/04 01:36:41;;;;;;;3.13;2.53;;;;;;;;;;4995641;28;20178;-72
2023/06/04 01:39:45;;;;;;;3.80;2.53;;;;;;;;;;4984021;28;20178;-72
2023/06/04 01:42:49;;;;;;;3.80;2.60;;;;;;;;;;4983929;28;20182;-70
2023/06/04 01:45:54;;;;;;;6.57;2.43;;;;;;;;;;4984375;28;20174;-72
2023/06/04 01:48:58;;;;;;;6.37;2.60;;;;;;;;;;4972569;28;20650;-72
2023/06/04 01:52:02;;;;;;;5.03;2.60;;;;;;;;;;4972430;28;20221;-70
2023/06/04 01:55:08;;;;;;;6.00;2.77;;;;;;;;;;4983794;28;20174;-70
2023/06/04 01:58:12;;;;;;;3.23;2.43;;;;;;;;;;4983602;28;20186;-71
2023/06/04 02:01:16;;;;;;;4.40;2.57;;;;;;;;;;4983659;28;20222;-72
2023/06/04 02:04:21;;;;;;;4.57;2.53;;;;;;;;;;4983947;28;20214;-73
2023/06/04 02:07:25;;;;;;;4.43;2.43;;;;;;;;;;4983253;28;20209;-72
2023/06/04 02:10:30;;;;;;;4.63;2.90;;;;;;;;;;4983433;28;20201;-72
2023/06/04 02:13:34;;;;;;;6.90;2.70;;;;;;;;;;4983545;28;20193;-71
2023/06/04 02:16:38;;;;;;;5.60;2.70;;;;;;;;;;4983494;28;20182;-72
2023/06/04 02:19:49;;;;;;;5.00;2.60;;;;;;;;;;4983465;28;20186;-73
2023/06/04 02:22:56;;;;;;;4.97;3.20;;;;;;;;;;4983318;28;20630;-73
2023/06/04 02:26:00;;;;;;;2.93;2.37;;;;;;;;;;4982947;28;20179;-71
2023/06/04 02:29:04;;;;;;;3.67;2.43;;;;;;;;;;4983510;28;20177;-72
2023/06/04 02:32:09;;;;;;;4.33;2.80;;;;;;;;;;4983027;28;20222;-73
2023/06/04 02:35:13;;;;;;;3.87;2.53;;;;;;;;;;4995032;28;20194;-72
2023/06/04 02:38:18;;;;;;;4.67;2.57;;;;;;;;;;4983353;28;20174;-72
2023/06/04 02:41:23;;;;;;;3.47;2.50;;;;;;;;;;4971689;28;20253;-72
2023/06/04 02:44:29;;;;;;;4.73;2.90;;;;;;;;;;4982629;28;20221;-73
2023/06/04 02:47:33;;;;;;;5.37;2.77;;;;;;;;;;4970995;28;20187;-71
2023/06/04 02:50:37;;;;;;;3.57;2.73;;;;;;;;;;4982757;28;20222;-73
2023/06/04 02:53:42;;;;;;;4.57;3.10;;;;;;;;;;4982777;28;20198;-73
2023/06/04 02:56:48;;;;;;;5.10;3.27;;;;;;;;;;4994414;28;20198;-73
2023/06/04 02:59:52;;;;;;;3.93;2.77;;;;;;;;;;4982733;28;20206;-72
2023/06/04 03:03:01;;;;;;;6.00;3.20;;;;;;;;;;4994718;28;20519;-72
2023/06/04 03:06:05;;;;;;;3.43;2.27;;;;;;;;;;4982866;28;20507;-72
2023/06/04 03:09:09;;;;;;;4.83;2.73;;;;;;;;;;4982198;28;20198;-73
2023/06/04 03:12:14;;;;;;;5.13;2.90;;;;;;;;;;4982417;28;20213;-72
2023/06/04 03:15:18;;;;;;;3.37;2.53;;;;;;;;;;4994445;28;20178;-73
2023/06/04 03:18:22;;;;;;;3.73;2.67;;;;;;;;;;4982430;28;20253;-73
2023/06/04 03:21:28;;;;;;;3.93;2.53;;;;;;;;;;4971189;28;20217;-73
2023/06/04 03:24:40;;;;;;;6.30;3.03;;;;;;;;;;4982568;28;20205;-73
2023/06/04 03:27:44;;;;;;;3.13;2.40;;;;;;;;;;4982562;28;20515;-73
2023/06/04 03:30:48;;;;;;;7.27;3.20;;;;;;;;;;4971377;28;20213;-73
2023/06/04 03:33:53;;;;;;;4.23;3.20;;;;;;;;;;4982234;28;20181;-73
2023/06/04 03:36:57;;;;;;;5.33;2.97;;;;;;;;;;4971154;28;20182;-73
2023/06/04 03:40:03;;;;;;;4.03;2.63;;;;;;;;;;4982654;28;20645;-73
2023/06/04 03:43:09;;;;;;;4.37;2.77;;;;;;;;;;4982068;28;20186;-73
2023/06/04 03:46:14;;;;;;;3.60;2.77;;;;;;;;;;4971202;28;20205;-73
2023/06/04 03:49:18;;;;;;;3.40;2.50;;;;;;;;;;4982102;28;20178;-73
2023/06/04 03:52:23;;;;;;;3.13;2.57;;;;;;;;;;4970899;28;20222;-73
2023/06/04 03:55:28;;;;;;;4.77;2.47;;;;;;;;;;4982028;28;20527;-73
2023/06/04 03:58:35;;;;;;;2.80;2.30;;;;;;;;;;4983692;28;20182;-72
2023/06/04 04:01:39;;;;;;;3.93;2.70;;;;;;;;;;4985812;28;20213;-72
2023/06/04 04:04:44;;;;;;;5.37;2.53;;;;;;;;;;4985645;28;20226;-73
2023/06/04 04:07:48;;;;;;;5.80;2.63;;;;;;;;;;4985453;28;20209;-73
2023/06/04 04:10:55;;;;;;;3.23;2.60;;;;;;;;;;4974826;28;20225;-73
2023/06/04 04:13:59;;;;;;;5.83;3.30;;;;;;;;;;4985811;28;20178;-73
2023/06/04 04:17:03;;;;;;;5.00;2.60;;;;;;;;;;4985847;28;20641;-73
2023/06/04 04:20:09;;;;;;;4.17;2.87;;;;;;;;;;4985617;28;20186;-73
2023/06/04 04:23:16;;;;;;;3.20;2.30;;;;;;;;;;4985564;28;20625;-73
2023/06/04 04:26:27;;;;;;;3.13;2.53;;;;;;;;;;4985526;28;20202;-73
2023/06/04 04:29:34;;;;;;;5.43;2.97;;;;;;;;;;4974444;28;20526;-73
2023/06/04 04:32:48;;;;;;;3.93;2.50;;;;;;;;;;4985040;28;20689;-73
2023/06/04 04:35:53;;;;;;;5.50;2.57;;;;;;;;;;4985370;28;20182;-73
2023/06/04 04:39:00;;;;;;;3.40;2.50;;;;;;;;;;4985375;28;20182;-73
2023/06/04 04:42:10;;;;;;;4.50;2.33;;;;;;;;;;4985007;28;20579;-73
2023/06/04 04:45:15;;;;;;;5.70;2.77;;;;;;;;;;4973890;28;20210;-73
2023/06/04 04:48:20;;;;;;;4.00;2.60;;;;;;;;;;4984938;28;20182;-73
2023/06/04 04:51:24;;;;;;;3.07;2.07;;;;;;;;;;4984761;28;20213;-73
2023/06/04 04:54:30;;;;;;;2.73;2.23;;;;;;;;;;4973421;28;20186;-73
2023/06/04 04:57:34;;;;;;;4.60;2.30;;;;;;;;;;4984325;28;20530;-73
2023/06/04 05:00:39;;;;;;;5.03;2.37;;;;;;;;;;4997056;28;20218;-73
2023/06/04 05:03:43;;;;;;;4.13;2.87;;;;;;;;;;4984761;28;20190;-73
2023/06/04 05:06:50;;;;;;;4.03;2.60;;;;;;;;;;4984796;28;20669;-73
2023/06/04 05:09:53;;;;;;;6.07;2.47;;;;;;;;;;4983534;28;20198;-73
2023/06/04 05:12:59;;;;;;;5.43;2.40;;;;;;;;;;4984705;28;20183;-73
2023/06/04 05:16:11;;;;;;;3.47;2.60;;;;;;;;;;4984660;28;20182;-73
2023/06/04 05:19:17;;;;;;;2.33;2.13;;;;;;;;;;4984255;28;20183;-73
2023/06/04 05:22:21;;;;;;;4.53;2.27;;;;;;;;;;4984463;28;20230;-73
2023/06/04 05:25:26;;;;;;;3.73;2.40;;;;;;;;;;4984359;28;20222;-73
2023/06/04 05:28:34;;;;;;;2.90;2.27;;;;;;;;;;4984382;28;20183;-73
2023/06/04 05:31:39;;;;;;;7.23;2.40;;;;;;;;;;4983952;28;20210;-73
2023/06/04 05:34:47;;;;;;;2.83;2.20;;;;;;;;;;4973202;28;20174;-73
2023/06/04 05:37:53;;;;;;;3.90;2.47;;;;;;;;;;4984344;28;20638;-73
2023/06/04 05:40:58;;;;;;;4.23;1.90;;;;;;;;;;4983805;28;20705;-73
2023/06/04 05:44:06;;;;;;;3.07;2.00;;;;;;;;;;4984137;28;20178;-73
2023/06/04 05:47:10;;;;;;;2.87;1.80;;;;;;;;;;4973086;28;20179;-72
2023/06/04 05:50:15;;;;;;;3.13;1.90;;;;;;;;;;4983668;28;20174;-73
2023/06/04 05:53:19;;;;;;;4.33;1.80;;;;;;;;;;4996022;28;20186;-74
2023/06/04 05:56:26;;;;;;;3.33;1.53;;;;;;;;;;4983695;28;20531;-72
2023/06/04 05:59:32;;;;;;;2.50;1.90;;;;;;;;;;4983554;28;20205;-72
2023/06/04 06:02:38;;;;;;;3.20;2.00;;;;;;;;;;4983458;28;20222;-74
2023/06/04 06:05:43;;;;;;;3.43;1.70;;;;;;;;;;4983389;28;20681;-73
2023/06/04 06:08:47;;;;;;;4.23;1.70;;;;;;;;;;4972329;28;20201;-75
2023/06/04 06:11:51;;;;;;;1.93;1.63;;;;;;;;;;4983238;28;20218;-74
2023/06/04 06:14:56;;;;;;;6.97;2.17;;;;;;;;;;4972360;28;20178;-73
2023/06/04 06:18:00;;;;;;;4.27;1.90;;;;;;;;;;4983407;28;20202;-73
2023/06/04 06:21:04;;;;;;;3.83;1.97;;;;;;;;;;4994960;28;20217;-72
2023/06/04 06:24:08;;;;;;;3.47;1.80;;;;;;;;;;4983393;28;20179;-73
2023/06/04 06:27:13;;;;;;;3.20;1.77;;;;;;;;;;4983021;28;20190;-73
2023/06/04 06:30:18;;;;;;;6.53;2.00;;;;;;;;;;4983420;28;20205;-74
2023/06/04 06:33:23;;;;;;;4.87;1.93;;;;;;;;;;4995081;28;20565;-74
2023/06/04 06:36:28;;;;;;;4.20;1.87;;;;;;;;;;4995079;28;20178;-72
2023/06/04 06:39:32;;;;;;;4.93;1.77;;;;;;;;;;4995041;28;20174;-72
2023/06/04 06:42:36;;;;;;;3.30;2.07;;;;;;;;;;4994709;28;20222;-74
2023/06/04 06:45:41;;;;;;;15.20;2.20;;;;;;;;;;4994829;28;20225;-72
2023/06/04 06:48:45;;;;;;;7.23;1.97;;;;;;;;;;4995196;28;20534;-72
2023/06/04 06:51:49;;;;;;;4.80;2.00;;;;;;;;;;4983258;28;20210;-72
2023/06/04 06:54:53;;;;;;;6.33;1.87;;;;;;;;;;4983026;28;20626;-72
2023/06/04 06:57:58;;;;;;;2.33;1.90;;;;;;;;;;4994490;28;20182;-72
2023/06/04 07:01:02;;;;;;;5.83;2.10;;;;;;;;;;4982372;28;20570;-72
2023/06/04 07:04:06;;;;;;;6.93;2.23;;;;;;;;;;4982593;28;20198;-72
2023/06/04 07:07:10;;;;;;;5.73;1.93;;;;;;;;;;4971295;28;20229;-72
2023/06/04 07:10:14;;;;;;;5.30;1.80;;;;;;;;;;4994249;28;20186;-72
2023/06/04 07:13:18;;;;;;;4.50;1.90;;;;;;;;;;4994743;28;20182;-71
2023/06/04 07:16:23;;;;;;;2.70;1.90;;;;;;;;;;4994684;28;20511;-71
2023/06/04 07:19:27;;;;;;;3.97;1.97;;;;;;;;;;4982957;28;20182;-72
2023/06/04 07:22:31;;;;;;;4.40;1.90;;;;;;;;;;4971190;28;20217;-72
2023/06/04 07:25:35;;;;;;;4.20;2.03;;;;;;;;;;4994089;28;20229;-72
2023/06/04 07:28:39;;;;;;;3.83;1.97;;;;;;;;;;4994447;28;20194;-71
2023/06/04 07:31:43;;;;;;;4.93;2.30;;;;;;;;;;4981861;28;20217;-71
2023/06/04 07:34:47;;;;;;;4.53;1.67;;;;;;;;;;4981832;28;20174;-72
2023/06/04 07:37:52;;;;;;;4.70;1.90;;;;;;;;;;4993755;28;20182;-71
2023/06/04 07:40:56;;;;;;;3.70;1.87;;;;;;;;;;4970605;28;20221;-72
2023/06/04 07:44:00;;;;;;;2.33;1.87;;;;;;;;;;4994111;28;20522;-72
2023/06/04 07:47:05;;;;;;;5.23;2.20;;;;;;;;;;4994124;28;20205;-71
2023/06/04 07:50:09;;;;;;;9.53;2.23;;;;;;;;;;4982064;28;20174;-72
2023/06/04 07:53:13;;;;;;;4.43;1.93;;;;;;;;;;4993818;28;20208;-72
2023/06/04 07:56:18;;;;;;;3.63;2.00;;;;;;;;;;4993823;28;20184;-72
2023/06/04 07:59:23;;;;;;;4.43;2.00;;;;;;;;;;4982328;28;20183;-72
2023/06/04 08:02:27;;;;;;;6.40;2.17;;;;;;;;;;4981647;28;20219;-72
2023/06/04 08:05:31;;;;;;;6.20;2.13;;;;;;;;;;4981635;28;20212;-71
2023/06/04 08:08:34;;;;;;;5.17;2.30;;;;;;;;;;4993557;28;20662;-72
2023/06/04 08:11:41;;;;;;;2.70;2.10;;;;;;;;;;4993823;28;20222;-71
2023/06/04 08:14:45;;;;;;;4.20;2.00;;;;;;;;;;4981849;28;20205;-71
2023/06/04 08:17:49;;;;;;;4.18;1.95;;;;;;;;;;4993973;28;20176;-72
2023/06/04 08:20:57;;;;;;;21.98;3.40;;;;;;;;;;4994179;28;20224;-72
2023/06/04 08:24:17;;;;;;;4.68;2.10;;;;;;;;;;4993692;28;20191;-72
2023/06/04 08:27:42;;;;;;;5.18;2.00;;;;;;;;;;4993682;28;20212;-72
2023/06/04 08:30:57;;;;;;;3.33;2.10;;;;;;;;;;4993724;28;20225;-72
2023/06/04 08:34:16;;;;;;;4.43;2.00;;;;;;;;;;4993973;28;20180;-72
2023/06/04 08:37:21;;;;;;;3.08;1.75;;;;;;;;;;4981983;28;20176;-72
2023/06/04 08:40:25;;;;;;;3.25;1.80;;;;;;;;;;4981620;28;20527;-72
2023/06/04 08:43:32;;;;;;;5.72;1.90;;;;;;;;;;4982115;28;20185;-72
2023/06/04 08:46:40;;;;;;;7.82;2.05;;;;;;;;;;4996606;28;20213;-72
2023/06/04 08:49:49;;;;;;;30.00;3.30;;;;;;;;;;4997445;28;20176;-72
2023/06/04 08:52:54;;;;;;;4.28;1.73;;;;;;;;;;4996962;28;20200;-72
2023/06/04 08:55:59;;;;;;;3.97;1.90;;;;;;;;;;4997068;28;20188;-72
2023/06/04 08:59:07;;;;;;;3.83;2.10;;;;;;;;;;4996972;28;20186;-72
2023/06/04 09:02:12;;;;;;;5.38;2.08;;;;;;;;;;4996839;28;20209;-72
2023/06/04 09:05:20;;;;;;;4.10;2.20;;;;;;;;;;4984643;28;20521;-72
2023/06/04 09:08:25;;;;;;;4.45;2.00;;;;;;;;;;4996611;28;20545;-72
2023/06/04 09:11:59;;;;;;;5.00;2.00;;;;;;;;;;4996773;28;20681;-72
2023/06/04 09:15:03;;;;;;;5.18;2.00;;;;;;;;;;4996654;28;20182;-72
2023/06/04 09:18:08;;;;;;;3.22;2.15;;;;;;;;;;4996700;28;20508;-72
2023/06/04 09:21:12;;;;;;;1.95;1.70;;;;;;;;;;4996680;28;20723;-72
2023/06/04 09:24:17;;;;;;;4.18;2.28;;;;;;;;;;4996693;28;20189;-73
2023/06/04 09:27:22;;;;;;;3.08;1.95;;;;;;;;;;4984338;28;20210;-73
2023/06/04 09:30:26;;;;;;;5.15;2.08;;;;;;;;;;4984391;28;20633;-73
2023/06/04 09:33:30;;;;;;;3.33;1.90;;;;;;;;;;4996373;28;20182;-73
2023/06/04 09:36:35;;;;;;;7.07;2.10;;;;;;;;;;4984460;28;20182;-73
2023/06/04 09:39:40;;;;;;;4.72;2.20;;;;;;;;;;4996201;28;20523;-73
2023/06/04 09:42:45;;;;;;;4.15;1.90;;;;;;;;;;4996229;28;20182;-73
2023/06/04 09:45:49;;;;;;;6.85;1.95;;;;;;;;;;4984342;28;20178;-72
2023/06/04 09:49:03;;;;;;;4.95;1.92;;;;;;;;;;4995787;28;20187;-71
2023/06/04 09:52:07;;;;;;;4.07;1.85;;;;;;;;;;4995647;28;20218;-72
2023/06/04 09:55:22;;;;;;;2.80;2.20;;;;;;;;;;4995655;28;20174;-72
2023/06/04 09:58:28;;;;;;;4.18;1.90;;;;;;;;;;4995615;28;20179;-73
2023/06/04 10:01:33;;;;;;;4.13;1.90;;;;;;;;;;4995797;28;20222;-72
2023/06/04 10:04:41;;;;;;;5.15;2.25;;;;;;;;;;4995437;28;20661;-72
2023/06/04 10:07:46;;;;;;;3.35;2.17;;;;;;;;;;4972528;28;20575;-73
2023/06/04 10:10:53;;;;;;;3.05;2.13;;;;;;;;;;4996021;28;20592;-72
2023/06/04 10:14:08;;;;;;;2.70;1.90;;;;;;;;;;4995903;28;20178;-73
2023/06/04 10:17:12;;;;;;;2.00;1.80;;;;;;;;;;4995391;28;20179;-73
2023/06/04 10:20:17;;;;;;;4.03;2.10;;;;;;;;;;4995635;28;20618;-73
2023/06/04 10:23:23;;;;;;;5.80;2.10;;;;;;;;;;4983756;28;20514;-73
2023/06/04 10:26:27;;;;;;;2.22;2.03;;;;;;;;;;4995405;28;20210;-73
2023/06/04 10:29:32;;;;;;;2.35;2.08;;;;;;;;;;4983161;28;20191;-73
2023/06/04 10:32:37;;;;;;;5.93;2.30;;;;;;;;;;4994996;28;20214;-72
2023/06/04 10:35:42;;;;;;;4.63;2.17;;;;;;;;;;4994877;28;20183;-73
2023/06/04 10:38:48;;;;;;;5.43;2.05;;;;;;;;;;4995375;28;20618;-73
2023/06/04 10:42:00;;;;;;;4.40;1.88;;;;;;;;;;4983118;28;20563;-73
2023/06/04 10:45:05;;;;;;;2.50;1.90;;;;;;;;;;4982722;28;20542;-72
2023/06/04 10:48:11;;;;;;;3.92;2.00;;;;;;;;;;4994612;28;20210;-72
2023/06/04 10:51:28;;;;;;;6.22;1.80;;;;;;;;;;4983136;28;20218;-72
2023/06/04 10:54:32;;;;;;;8.38;2.00;;;;;;;;;;4982555;28;20552;-73
2023/06/04 10:57:36;;;;;;;4.35;2.38;;;;;;;;;;4995019;28;20179;-73
2023/06/04 11:00:42;;;;;;;6.75;2.17;;;;;;;;;;4994626;28;20218;-72
2023/06/04 11:03:48;;;;;;;4.50;2.63;;;;;;;;;;4994597;28;20182;-73
2023/06/04 11:07:04;;;;;;;2.95;2.28;;;;;;;;;;4982382;28;20226;-73
2023/06/04 11:10:10;;;;;;;3.70;2.50;;;;;;;;;;4994382;28;20634;-72
2023/06/04 11:13:14;;;;;;;18.88;3.22;;;;;;;;;;4994682;28;20182;-73
2023/06/04 11:16:20;;;;;;;4.82;2.67;;;;;;;;;;4994598;28;20179;-72
2023/06/04 11:19:35;;;;;;;3.45;2.08;;;;;;;;;;4994080;28;20202;-72
2023/06/04 11:22:39;;;;;;;2.95;2.22;;;;;;;;;;4994524;28;20214;-73
2023/06/04 11:25:44;;;;;;;4.50;2.20;;;;;;;;;;4982099;28;20182;-73
2023/06/04 11:28:51;;;;;;;4.85;2.30;;;;;;;;;;4994222;28;20186;-73
2023/06/04 11:31:57;;;;;;;4.40;2.60;;;;;;;;;;4993793;28;20214;-72
2023/06/04 11:35:06;;;;;;;4.43;2.25;;;;;;;;;;4982458;28;20190;-72
2023/06/04 11:38:10;;;;;;;4.95;2.25;;;;;;;;;;4994604;28;20179;-72
2023/06/04 11:41:14;;;;;;;3.53;2.40;;;;;;;;;;4993735;28;20703;-72
2023/06/04 11:44:20;;;;;;;5.25;2.25;;;;;;;;;;4994086;28;20626;-73
2023/06/04 11:47:24;;;;;;;10.80;2.92;;;;;;;;;;4982244;28;20210;-73
2023/06/04 11:50:29;;;;;;;3.00;2.22;;;;;;;;;;4993927;28;20539;-73
2023/06/04 11:53:34;;;;;;;4.40;2.17;;;;;;;;;;4993936;28;20186;-72
2023/06/04 11:56:38;;;;;;;4.10;2.60;;;;;;;;;;4982021;28;20182;-73
2023/06/04 11:59:42;;;;;;;2.78;2.20;;;;;;;;;;4994170;28;20186;-73
2023/06/04 12:02:54;;;;;;;2.90;2.28;;;;;;;;;;4981679;28;20182;-72
2023/06/04 12:05:58;;;;;;;3.05;2.60;;;;;;;;;;4970824;28;20523;-73
2023/06/04 12:09:04;;;;;;;5.43;2.65;;;;;;;;;;4993485;28;20194;-73
2023/06/04 12:12:08;;;;;;;3.28;2.35;;;;;;;;;;4993975;28;20214;-72
2023/06/04 12:15:18;;;;;;;6.03;2.33;;;;;;;;;;4970982;28;20182;-73
2023/06/04 12:18:25;;;;;;;3.13;2.45;;;;;;;;;;4993849;28;20618;-73
2023/06/04 12:21:29;;;;;;;3.13;2.63;;;;;;;;;;4997773;28;20214;-72
2023/06/04 12:24:45;;;;;;;3.25;2.58;;;;;;;;;;4997574;28;20190;-73
2023/06/04 12:27:50;;;;;;;8.63;2.58;;;;;;;;;;4985467;28;20214;-73
2023/06/04 12:30:54;;;;;;;4.97;2.40;;;;;;;;;;4997376;28;20701;-72
2023/06/04 12:33:59;;;;;;;3.38;2.40;;;;;;;;;;4997376;28;20182;-72
2023/06/04 12:37:05;;;;;;;4.55;2.58;;;;;;;;;;4997371;28;20187;-72
2023/06/04 12:40:10;;;;;;;5.72;2.80;;;;;;;;;;4985432;28;20184;-72
2023/06/04 12:43:14;;;;;;;11.70;3.45;;;;;;;;;;4996897;28;20202;-72
2023/06/04 12:46:18;;;;;;;4.72;3.00;;;;;;;;;;4984813;28;20193;-72
2023/06/04 12:49:22;;;;;;;5.55;2.60;;;;;;;;;;4997268;28;20177;-72
2023/06/04 12:52:26;;;;;;;6.78;2.53;;;;;;;;;;4996681;28;20221;-72
2023/06/04 12:55:31;;;;;;;4.47;2.80;;;;;;;;;;4984990;28;20540;-72
2023/06/04 12:58:35;;;;;;;5.88;2.50;;;;;;;;;;4996677;28;20184;-72
2023/06/04 13:01:39;;;;;;;7.22;2.90;;;;;;;;;;4996296;28;20218;-72
2023/06/04 13:04:45;;;;;;;3.70;2.70;;;;;;;;;;4996626;28;20182;-72
2023/06/04 13:07:50;;;;;;;10.50;2.78;;;;;;;;;;4996466;28;20226;-72
2023/06/04 13:10:54;;;;;;;6.10;2.80;;;;;;;;;;4996708;28;20230;-72
2023/06/04 13:13:58;;;;;;;4.28;3.25;;;;;;;;;;4996467;28;20183;-72
2023/06/04 13:17:02;;;;;;;4.57;2.92;;;;;;;;;;4996153;28;20187;-72
2023/06/04 13:20:07;;;;;;;3.15;2.40;;;;;;;;;;4984409;28;20190;-72
2023/06/04 13:23:12;;;;;;;3.50;2.30;;;;;;;;;;4996467;28;20190;-72
2023/06/04 13:26:19;;;;;;;4.35;2.95;;;;;;;;;;4996462;28;20515;-72
2023/06/04 13:29:23;;;;;;;6.97;2.75;;;;;;;;;;4996680;28;20178;-72
2023/06/04 13:32:28;;;;;;;3.90;2.78;;;;;;;;;;4983265;28;20222;-72
2023/06/04 13:35:32;;;;;;;3.90;3.10;;;;;;;;;;4996284;28;20538;-73
2023/06/04 13:38:35;;;;;;;4.00;2.80;;;;;;;;;;4984434;28;20178;-72
2023/06/04 13:41:39;;;;;;;4.32;2.78;;;;;;;;;;4983841;28;20221;-72
2023/06/04 13:44:44;;;;;;;3.50;3.15;;;;;;;;;;4983837;28;20582;-72
2023/06/04 13:47:48;;;;;;;3.72;3.33;;;;;;;;;;4995829;28;20214;-72
2023/06/04 13:50:52;;;;;;;6.78;3.15;;;;;;;;;;4983993;28;20218;-72
2023/06/04 13:53:56;;;;;;;6.18;3.40;;;;;;;;;;4983727;28;20185;-72
2023/06/04 13:57:03;;;;;;;4.10;3.42;;;;;;;;;;4995561;28;20179;-72
2023/06/04 14:00:09;;;;;;;3.65;2.75;;;;;;;;;;4996047;28;20186;-72
2023/06/04 14:03:13;;;;;;;5.18;3.08;;;;;;;;;;4995242;28;20297;-72
2023/06/04 14:06:18;;;;;;;6.55;2.80;;;;;;;;;;4972554;28;20186;-72
2023/06/04 14:09:22;;;;;;;4.07;2.95;;;;;;;;;;4995452;28;20212;-72
2023/06/04 14:12:26;;;;;;;6.55;3.15;;;;;;;;;;4983496;28;20216;-72
2023/06/04 14:15:30;;;;;;;3.65;3.03;;;;;;;;;;4972468;28;20514;-72
2023/06/04 14:18:34;;;;;;;5.25;3.28;;;;;;;;;;4995260;28;20186;-72
2023/06/04 14:21:39;;;;;;;3.28;2.90;;;;;;;;;;4995393;28;20220;-72
2023/06/04 14:24:43;;;;;;;5.13;3.55;;;;;;;;;;4995422;28;20185;-72
2023/06/04 14:27:48;;;;;;;3.60;3.20;;;;;;;;;;4995012;28;20217;-72
2023/06/04 14:30:52;;;;;;;5.78;3.30;;;;;;;;;;4983024;28;20214;-72
2023/06/04 14:33:56;;;;;;;5.75;3.30;;;;;;;;;;4983060;28;20205;-72
2023/06/04 14:37:00;;;;;;;4.22;3.63;;;;;;;;;;4994818;28;20198;-72
2023/06/04 14:40:04;;;;;;;4.88;3.40;;;;;;;;;;4983150;28;20175;-72
2023/06/04 14:43:12;;;;;;;3.40;3.10;;;;;;;;;;4993995;28;20625;-72
2023/06/04 14:46:16;;;;;;;19.77;4.57;;;;;;;;;;4994912;28;20186;-72
2023/06/04 14:49:20;;;;;;;3.58;2.97;;;;;;;;;;4994896;28;20662;-72
2023/06/04 14:52:25;;;;;;;5.38;3.80;;;;;;;;;;4994447;28;20220;-72
2023/06/04 14:55:29;;;;;;;4.75;3.30;;;;;;;;;;4994475;28;20178;-72
2023/06/04 14:58:34;;;;;;;5.85;3.17;;;;;;;;;;4994324;28;20179;-72
2023/06/04 15:01:40;;;;;;;4.45;3.20;;;;;;;;;;4994775;28;20566;-72
2023/06/04 15:04:44;;;;;;;5.00;3.22;;;;;;;;;;4982211;28;20522;-72
2023/06/04 15:07:48;;;;;;;6.07;3.25;;;;;;;;;;4981789;28;20227;-72
2023/06/04 15:10:52;;;;;;;4.20;3.20;;;;;;;;;;4993796;28;20223;-72
2023/06/04 15:13:57;;;;;;;3.80;3.33;;;;;;;;;;4994456;28;20181;-72
2023/06/04 15:17:01;;;;;;;4.05;2.85;;;;;;;;;;4982549;28;20181;-72
2023/06/04 15:20:05;;;;;;;6.22;3.55;;;;;;;;;;4982256;28;20170;-72
2023/06/04 15:23:09;;;;;;;5.13;3.05;;;;;;;;;;4993892;28;20182;-72
2023/06/04 15:26:15;;;;;;;5.60;3.53;;;;;;;;;;4981744;28;20180;-72
2023/06/04 15:29:19;;;;;;;6.85;3.22;;;;;;;;;;4993947;28;20219;-72
2023/06/04 15:32:23;;;;;;;5.15;3.60;;;;;;;;;;4982090;28;20218;-72
2023/06/04 15:35:28;;;;;;;5.97;3.22;;;;;;;;;;4994165;28;20178;-72
2023/06/04 15:38:33;;;;;;;6.32;3.15;;;;;;;;;;4982128;28;20185;-72
2023/06/04 15:41:37;;;;;;;4.63;3.27;;;;;;;;;;4993751;28;20221;-72
2023/06/04 15:44:41;;;;;;;3.93;3.37;;;;;;;;;;4994313;28;20180;-72
2023/06/04 15:47:45;;;;;;;5.17;3.53;;;;;;;;;;4993641;28;20186;-72
2023/06/04 15:50:49;;;;;;;4.67;3.10;;;;;;;;;;4993714;28;20214;-71
2023/06/04 15:53:54;;;;;;;3.47;3.17;;;;;;;;;;4993875;28;20184;-72
2023/06/04 15:56:58;;;;;;;9.37;3.33;;;;;;;;;;4994238;28;20181;-72
2023/06/04 16:00:03;;;;;;;13.30;4.27;;;;;;;;;;4982228;28;20182;-72
2023/06/04 16:03:08;;;;;;;4.17;3.30;;;;;;;;;;4982290;28;20174;-72
2023/06/04 16:06:12;;;;;;;6.47;3.50;;;;;;;;;;4981957;28;20521;-72
2023/06/04 16:09:17;;;;;;;3.40;3.03;;;;;;;;;;4994047;28;20253;-72
2023/06/04 16:12:21;;;;;;;5.77;3.30;;;;;;;;;;4981569;28;20222;-72
2023/06/04 16:15:25;;;;;;;3.43;2.77;;;;;;;;;;4982066;28;20186;-72
2023/06/04 16:18:29;;;;;;;8.13;3.40;;;;;;;;;;4993692;28;20198;-72
2023/06/04 16:21:34;;;;;;;4.47;2.90;;;;;;;;;;4993418;28;20224;-72
2023/06/04 16:24:38;;;;;;;5.43;3.17;;;;;;;;;;4982033;28;20183;-72
2023/06/04 16:27:44;;;;;;;4.57;3.00;;;;;;;;;;4981639;28;20629;-73
2023/06/04 16:30:48;;;;;;;25.53;4.93;;;;;;;;;;4993314;28;20223;-72
2023/06/04 16:33:52;;;;;;;7.00;2.73;;;;;;;;;;4993771;28;20204;-73
2023/06/04 16:36:56;;;;;;;3.03;2.70;;;;;;;;;;4981433;28;20536;-73
2023/06/04 16:40:00;;;;;;;3.80;3.20;;;;;;;;;;4981606;28;20180;-72
2023/06/04 16:43:06;;;;;;;6.00;3.03;;;;;;;;;;4981578;28;20203;-73
2023/06/04 16:46:10;;;;;;;6.33;3.37;;;;;;;;;;4993439;28;20634;-73
2023/06/04 16:49:14;;;;;;;6.70;3.40;;;;;;;;;;4993029;28;20218;-73
2023/06/04 16:52:19;;;;;;;3.23;2.93;;;;;;;;;;4993649;28;20227;-73
2023/06/04 16:55:31;;;;;;;3.60;2.93;;;;;;;;;;4993342;28;20182;-73
2023/06/04 16:58:48;;;;;;;6.87;3.10;;;;;;;;;;4981302;28;20180;-73
2023/06/04 17:01:52;;;;;;;4.70;3.00;;;;;;;;;;4993378;28;20231;-73
2023/06/04 17:04:57;;;;;;;11.07;3.60;;;;;;;;;;4993220;28;20185;-73
2023/06/04 17:08:01;;;;;;;5.93;2.83;;;;;;;;;;4996427;28;20673;-73
2023/06/04 17:11:05;;;;;;;10.40;3.47;;;;;;;;;;4984494;28;20697;-73
2023/06/04 17:14:09;;;;;;;5.50;3.17;;;;;;;;;;4996807;28;20614;-73
2023/06/04 17:17:13;;;;;;;3.67;3.23;;;;;;;;;;4996356;28;20182;-73
2023/06/04 17:20:17;;;;;;;7.53;3.77;;;;;;;;;;4996369;28;20187;-73
2023/06/04 17:23:23;;;;;;;3.57;3.20;;;;;;;;;;4996431;28;20186;-73
2023/06/04 17:26:27;;;;;;;6.63;3.50;;;;;;;;;;4996229;28;20183;-73
2023/06/04 17:29:31;;;;;;;6.17;3.07;;;;;;;;;;4996306;28;20220;-73
2023/06/04 17:32:35;;;;;;;8.50;3.60;;;;;;;;;;4996005;28;20226;-72
2023/06/04 17:35:39;;;;;;;7.93;3.00;;;;;;;;;;4995916;28;20179;-73
2023/06/04 17:38:43;;;;;;;11.07;4.03;;;;;;;;;;4996710;28;20174;-73
2023/06/04 17:41:47;;;;;;;4.50;3.10;;;;;;;;;;4983895;28;20697;-73
2023/06/04 17:44:52;;;;;;;4.77;3.30;;;;;;;;;;4984151;28;20630;-73
2023/06/04 17:47:56;;;;;;;4.27;3.33;;;;;;;;;;4984073;28;20186;-73
2023/06/04 17:51:01;;;;;;;5.73;3.33;;;;;;;;;;4995774;28;20214;-72
2023/06/04 17:54:06;;;;;;;3.97;3.00;;;;;;;;;;4996048;28;20186;-73
2023/06/04 17:57:11;;;;;;;4.87;3.00;;;;;;;;;;4996070;28;20183;-72
2023/06/04 18:00:15;;;;;;;4.93;3.20;;;;;;;;;;4996000;28;20175;-73
2023/06/04 18:03:20;;;;;;;11.03;3.60;;;;;;;;;;4995413;28;20186;-72
2023/06/04 18:06:24;;;;;;;23.10;3.90;;;;;;;;;;4995355;28;20185;-73
2023/06/04 18:09:28;;;;;;;10.47;4.40;;;;;;;;;;4995908;28;20202;-73
2023/06/04 18:12:36;;;;;;;11.40;4.00;;;;;;;;;;4995205;28;20213;-72
2023/06/04 18:15:40;;;;;;;5.90;3.43;;;;;;;;;;4983224;28;20634;-73
2023/06/04 18:18:44;;;;;;;4.37;3.03;;;;;;;;;;4995212;28;20515;-72
2023/06/04 18:21:51;;;;;;;5.90;3.33;;;;;;;;;;4995265;28;20218;-72
2023/06/04 18:24:55;;;;;;;5.43;3.63;;;;;;;;;;4995219;28;20178;-72
2023/06/04 18:27:59;;;;;;;6.13;3.20;;;;;;;;;;4983109;28;20178;-72
2023/06/04 18:31:03;;;;;;;7.00;3.90;;;;;;;;;;4972032;28;20218;-73